Погода Глыбовкана 2 недели

Гомельская область, Белоруссия

15 - 28 июля
  • 15июля
    Сегодня
    +21°
    +33°
    Ясно и безоблачно
    ВремяПогодаТемператураВлажностьДавлениеВетер, м/сВероятность осадков
    00:00Облачно с прояснениями+24°C92 %749 мм2.6 м/с6 %
    03:00Облачно с прояснениями+22°C97 %749 мм2.5 м/с2 %
    06:00Практически безоблачно+21°C97 %749 мм1.8 м/с2 %
    09:00Пасмурно, сплошная облачность+25°C89 %750 мм1.8 м/с6 %
    12:00Практически безоблачно+29°C71 %750 мм2.3 м/с5 %
    15:00Ясно и безоблачно+32°C65 %750 мм2.6 м/с2 %
    18:00Облачно с прояснениями+32°C62 %750 мм3.9 м/с13 %
    21:00Облачно с прояснениями+27°C80 %750 мм2.7 м/с16 %
  • 16июля
    Вторник
    +21°
    +34°
    Практически безоблачно
    ВремяПогодаТемператураВлажностьДавлениеВетер, м/сВероятность осадков
    00:00Облачно с прояснениями, небольшой дождь+23°C90 %750 мм2.2 м/с52 %
    03:00Ясно и безоблачно+22°C97 %750 мм2.2 м/с4 %
    06:00Небольшая облачность+21°C97 %750 мм1.4 м/с2 %
    09:00Ясно и безоблачно+26°C80 %751 мм2.1 м/с2 %
    12:00Ясно и безоблачно+30°C66 %750 мм2.8 м/с4 %
    15:00Практически безоблачно+33°C59 %750 мм3.3 м/с4 %
    18:00Ясно и безоблачно+33°C57 %750 мм4.8 м/с4 %
    21:00Ясно и безоблачно+27°C76 %750 мм2.8 м/с2 %
  • 17июля
    Среда
    +21°
    +36°
    Практически безоблачно
    ВремяПогодаТемператураВлажностьДавлениеВетер, м/сВероятность осадков
    00:00Ясно и безоблачно+24°C82 %750 мм2.4 м/с2 %
    03:00Ясно и безоблачно+23°C89 %750 мм2.4 м/с2 %
    06:00Ясно и безоблачно+22°C85 %750 мм2.2 м/с2 %
    09:00Ясно и безоблачно+28°C70 %751 мм3.1 м/с2 %
    12:00Практически безоблачно+33°C56 %750 мм4.0 м/с5 %
    15:00Практически безоблачно+36°C51 %750 мм4.6 м/с19 %
    18:00Небольшая облачность+34°C56 %749 мм5.8 м/с38 %
    21:00Облачно с прояснениями+28°C74 %750 мм2.9 м/с21 %
  • 18июля
    Четверг
    +17°
    +31°
    Облачно с прояснениями
    ВремяПогодаТемператураВлажностьДавлениеВетер, м/сВероятность осадков
    00:00Практически безоблачно+24°C87 %750 мм2.1 м/с16 %
    03:00Небольшая облачность+23°C92 %750 мм2.9 м/с12 %
    06:00Облачно с прояснениями+22°C96 %750 мм3.1 м/с4 %
    09:00Облачно с прояснениями+25°C79 %751 мм4.1 м/с26 %
    12:00Облачно с прояснениями+27°C63 %751 мм4.0 м/с43 %
    15:00Облачно с прояснениями+31°C49 %751 мм5.0 м/с18 %
    18:00Практически безоблачно+27°C47 %750 мм6.2 м/с9 %
    21:00Ясно и безоблачно+24°C61 %751 мм4.0 м/с4 %
  • 19июля
    Пятница
    +15°
    +29°
    Облачно с прояснениями
    ВремяПогодаТемператураВлажностьДавлениеВетер, м/сВероятность осадков
    00:00Ясно и безоблачно+21°C73 %751 мм2.8 м/с2 %
    03:00Ясно и безоблачно+19°C79 %751 мм3.3 м/с2 %
    06:00Ясно и безоблачно+18°C83 %751 мм2.7 м/с2 %
    09:00Ясно и безоблачно+23°C66 %751 мм4.0 м/с2 %
    12:00Небольшая облачность+26°C49 %751 мм5.0 м/с12 %
    15:00Облачно с прояснениями+28°C43 %750 мм5.7 м/с5 %
    18:00Ясно и безоблачно+28°C41 %749 мм6.6 м/с2 %
    21:00Ясно и безоблачно+23°C55 %749 мм4.3 м/с2 %
Мы используем cookies
Соглашаюсь